Time;durP1;ratioP1;P1;durP2;ratioP2;P2;SDS_P1;SDS_P2;PMS_P1;PMS_P2;Temp;Humidity;BMP_temperature;BMP_pressure;BME280_temperature;BME280_humidity;BME280_pressure;Samples;Min_cycle;Max_cycle;Signal;HPM_P1;HPM_P2
2022/07/28 00:02:19;;;;;;;7.82;3.63;;;;;17.70;96424.00;;;;8429981;28;20215;-62
2022/07/28 00:06:24;;;;;;;9.57;4.13;;;;;17.70;96414.00;;;;8430069;28;20572;-61
2022/07/28 00:10:27;;;;;;;5.70;3.92;;;;;17.70;96415.00;;;;8429529;28;20318;-62
2022/07/28 00:15:04;;;;;;;6.72;3.60;;;;;17.70;96413.00;;;;8429853;28;20219;-62
2022/07/28 00:19:07;;;;;;;4.18;3.78;;;;;17.80;96410.00;;;;8429185;28;20314;-62
2022/07/28 00:23:44;;;;;;;6.22;3.50;;;;;17.80;96414.00;;;;8429948;28;20222;-63
2022/07/28 00:27:49;;;;;;;8.35;3.88;;;;;17.80;96413.00;;;;8428982;28;20647;-62
2022/07/28 00:32:25;;;;;;;5.80;3.55;;;;;17.90;96411.00;;;;8428891;28;20218;-62
2022/07/28 00:36:29;;;;;;;6.25;3.75;;;;;18.00;96412.00;;;;8429161;28;20660;-62
2022/07/28 00:44:54;;;;;;;8.95;3.85;;;;;17.90;96400.00;;;;8427455;28;20646;-63
2022/07/28 00:48:57;;;;;;;5.95;3.63;;;;;17.90;96396.00;;;;8429185;28;20619;-61
2022/07/28 00:53:01;;;;;;;5.75;3.75;;;;;17.80;96407.00;;;;8427844;28;20309;-63
2022/07/28 00:57:06;;;;;;;5.65;3.70;;;;;17.80;96399.00;;;;8428189;28;20226;-62
2022/07/28 01:01:14;;;;;;;5.68;3.88;;;;;17.70;96400.00;;;;8428844;28;20316;-62
2022/07/28 01:05:50;;;;;;;10.00;4.68;;;;;17.60;96391.00;;;;8428061;28;20842;-62
2022/07/28 01:15:18;;;;;;;9.82;4.45;;;;;17.40;96397.00;;;;8428124;28;20224;-62
2022/07/28 01:19:49;;;;;;;16.77;4.38;;;;;17.40;96392.00;;;;8427768;28;20254;-63
2022/07/28 01:24:05;;;;;;;7.82;4.28;;;;;17.40;96382.00;;;;8428021;28;20225;-62
2022/07/28 01:28:24;;;;;;;9.63;4.40;;;;;17.30;96385.00;;;;8427097;28;20724;-63
2022/07/28 01:32:57;;;;;;;7.57;4.57;;;;;17.10;96379.00;;;;8427506;28;20540;-61
2022/07/28 01:37:07;;;;;;;9.95;5.03;;;;;17.10;96377.00;;;;8426843;28;20309;-63
2022/07/28 01:41:36;;;;;;;9.52;4.90;;;;;17.00;96368.00;;;;8427437;28;20309;-63
2022/07/28 01:46:11;;;;;;;12.05;5.47;;;;;17.00;96366.00;;;;8427397;28;20219;-63
2022/07/28 01:50:18;;;;;;;10.75;4.80;;;;;16.90;96366.00;;;;8427621;28;20301;-63
2022/07/28 01:54:23;;;;;;;13.05;5.57;;;;;16.90;96363.00;;;;8427135;28;20307;-62
2022/07/28 01:58:28;;;;;;;8.48;5.45;;;;;16.90;96360.00;;;;8434327;28;20219;-63
2022/07/28 02:02:34;;;;;;;9.98;5.10;;;;;16.90;96357.00;;;;8433663;28;20310;-63
2022/07/28 02:06:40;;;;;;;10.95;5.25;;;;;16.90;96350.00;;;;8433699;28;20310;-63
2022/07/28 02:11:38;;;;;;;8.77;4.85;;;;;16.90;96348.00;;;;8358890;28;20239;-62
2022/07/28 02:15:13;;;;;;;11.23;4.78;;;;;16.80;96345.00;;;;8359477;28;20539;-62
2022/07/28 02:19:19;;;;;;;8.65;5.03;;;;;16.80;96339.00;;;;8366266;28;20234;-62
2022/07/28 02:23:56;;;;;;;8.88;5.03;;;;;16.70;96348.00;;;;8367560;28;20298;-62
2022/07/28 02:28:03;;;;;;;9.55;4.80;;;;;16.60;96338.00;;;;8365795;28;20312;-62
2022/07/28 02:32:11;;;;;;;12.23;5.18;;;;;16.60;96334.00;;;;8366668;28;20250;-62
2022/07/28 02:36:32;;;;;;;13.05;4.90;;;;;16.60;96334.00;;;;8366773;28;20247;-63
2022/07/28 02:41:10;;;;;;;7.93;4.50;;;;;16.50;96328.00;;;;8366448;28;20653;-62
2022/07/28 02:45:16;;;;;;;11.90;4.90;;;;;16.40;96340.00;;;;8365925;28;20223;-62
2022/07/28 02:49:23;;;;;;;7.13;4.28;;;;;16.30;96337.00;;;;8366487;28;20227;-63
2022/07/28 02:53:28;;;;;;;12.90;4.72;;;;;16.20;96341.00;;;;8365818;28;20224;-63
2022/07/28 02:57:33;;;;;;;12.18;5.13;;;;;16.30;96347.00;;;;8369672;28;20232;-62
2022/07/28 03:01:37;;;;;;;10.02;4.72;;;;;16.30;96344.00;;;;8397165;22;21476;-63
2022/07/28 03:05:41;;;;;;;10.82;5.18;;;;;16.30;96351.00;;;;8422282;27;20232;-64
2022/07/28 03:09:47;;;;;;;25.50;4.68;;;;;16.40;96365.00;;;;8438727;27;20705;-64
2022/07/28 03:13:52;;;;;;;5.95;4.47;;;;;16.40;96357.00;;;;8430301;27;20217;-64
2022/07/28 03:17:55;;;;;;;8.82;4.28;;;;;16.40;96358.00;;;;8437527;27;20222;-63
2022/07/28 03:21:58;;;;;;;11.77;5.47;;;;;16.30;96368.00;;;;8416525;27;20595;-63
2022/07/28 03:26:05;;;;;;;8.60;4.78;;;;;16.20;96361.00;;;;8441471;28;20221;-63
2022/07/28 03:30:14;;;;;;;10.98;4.80;;;;;16.20;96358.00;;;;8441272;27;20221;-63
2022/07/28 03:34:18;;;;;;;8.80;4.40;;;;;16.10;96355.00;;;;8437072;27;20231;-63
2022/07/28 03:38:25;;;;;;;7.53;4.95;;;;;16.00;96347.00;;;;8449073;27;20243;-62
2022/07/28 03:42:30;;;;;;;7.38;3.97;;;;;16.00;96347.00;;;;8435976;28;20619;-62
2022/07/28 03:46:35;;;;;;;13.80;5.00;;;;;16.00;96342.00;;;;8448774;27;21031;-64
2022/07/28 03:50:38;;;;;;;8.27;5.05;;;;;16.00;96352.00;;;;8446393;27;20682;-64
2022/07/28 03:54:41;;;;;;;7.50;4.45;;;;;16.00;96346.00;;;;8437638;28;20604;-63
2022/07/28 03:58:44;;;;;;;10.45;4.45;;;;;16.00;96354.00;;;;8439268;27;20598;-62
2022/07/28 04:02:49;;;;;;;9.23;4.57;;;;;16.00;96344.00;;;;8415222;28;20783;-63
2022/07/28 04:06:52;;;;;;;6.05;4.13;;;;;15.90;96340.00;;;;8417784;28;20223;-63
2022/07/28 04:10:56;;;;;;;8.05;4.03;;;;;15.90;96340.00;;;;8418637;28;20222;-62
2022/07/28 04:14:59;;;;;;;8.60;3.83;;;;;15.90;96346.00;;;;8412088;28;20222;-64
2022/07/28 04:19:03;;;;;;;6.85;3.97;;;;;15.90;96344.00;;;;8406631;28;20229;-68
2022/07/28 04:23:07;;;;;;;9.43;4.32;;;;;15.90;96344.00;;;;8412837;28;20246;-67
2022/07/28 04:27:10;;;;;;;8.65;4.22;;;;;15.90;96337.00;;;;8416267;28;20232;-67
2022/07/28 04:31:13;;;;;;;15.02;4.20;;;;;15.90;96342.00;;;;8390713;28;20219;-68
2022/07/28 04:35:19;;;;;;;7.22;3.70;;;;;15.90;96339.00;;;;8413361;28;20295;-66
2022/07/28 04:39:23;;;;;;;10.77;4.10;;;;;16.00;96337.00;;;;8415972;28;20257;-66
2022/07/28 04:43:26;;;;;;;5.07;3.67;;;;;16.10;96346.00;;;;8395221;28;20718;-68
2022/07/28 04:47:30;;;;;;;7.10;4.10;;;;;16.30;96359.00;;;;8395871;28;20233;-67
2022/07/28 04:51:35;;;;;;;10.30;5.13;;;;;16.40;96348.00;;;;8413813;28;20340;-66
2022/07/28 04:55:39;;;;;;;7.47;4.03;;;;;16.50;96353.00;;;;8412803;28;20226;-67
2022/07/28 04:59:42;;;;;;;10.48;4.43;;;;;16.60;96353.00;;;;8416616;28;20317;-66
2022/07/28 05:03:50;;;;;;;11.50;4.68;;;;;16.80;96356.00;;;;8407782;28;20230;-66
2022/07/28 05:07:54;;;;;;;8.75;4.28;;;;;17.00;96357.00;;;;8413969;28;20297;-67
2022/07/28 05:11:58;;;;;;;7.40;4.00;;;;;17.20;96363.00;;;;8411206;28;20233;-67
2022/07/28 05:16:01;;;;;;;11.40;4.20;;;;;17.40;96362.00;;;;8414236;28;20303;-67
2022/07/28 05:20:07;;;;;;;11.23;4.80;;;;;17.50;96368.00;;;;8404263;28;20279;-67
2022/07/28 05:24:12;;;;;;;7.60;4.35;;;;;17.60;96367.00;;;;8412585;28;20233;-65
2022/07/28 05:28:16;;;;;;;11.18;5.68;;;;;17.70;96368.00;;;;8409660;28;20227;-65
2022/07/28 05:32:20;;;;;;;10.80;4.80;;;;;17.80;96369.00;;;;8409764;28;20229;-65
2022/07/28 05:36:23;;;;;;;9.07;5.20;;;;;18.00;96362.00;;;;8414761;28;20247;-65
2022/07/28 05:40:28;;;;;;;10.35;5.85;;;;;18.10;96370.00;;;;8409664;28;20842;-66
2022/07/28 05:44:32;;;;;;;12.73;5.85;;;;;18.30;96362.00;;;;8414086;28;20711;-66
2022/07/28 05:48:40;;;;;;;7.93;5.60;;;;;18.50;96369.00;;;;8411230;28;20318;-67
2022/07/28 05:52:44;;;;;;;10.82;5.60;;;;;18.70;96374.00;;;;8406534;28;20302;-65
2022/07/28 05:56:49;;;;;;;13.43;5.70;;;;;18.80;96371.00;;;;8408189;28;20668;-66
2022/07/28 06:00:53;;;;;;;12.30;6.20;;;;;18.90;96377.00;;;;8417450;28;20227;-70
2022/07/28 06:04:57;;;;;;;18.38;6.30;;;;;18.70;96390.00;;;;8413652;28;20275;-66
2022/07/28 06:09:00;;;;;;;13.15;6.72;;;;;18.80;96380.00;;;;8411012;28;20215;-66
2022/07/28 06:13:05;;;;;;;16.42;6.13;;;;;18.90;96380.00;;;;8410488;28;20233;-66
2022/07/28 06:17:08;;;;;;;19.75;6.35;;;;;19.10;96384.00;;;;8405269;28;20579;-66
2022/07/28 06:21:11;;;;;;;11.23;5.80;;;;;19.40;96379.00;;;;8405677;28;20550;-68
2022/07/28 06:25:16;;;;;;;18.38;6.30;;;;;19.60;96390.00;;;;8410191;28;20226;-65
2022/07/28 06:29:21;;;;;;;16.38;5.38;;;;;19.90;96396.00;;;;8410270;28;20687;-67
2022/07/28 06:33:24;;;;;;;10.68;5.82;;;;;20.00;96393.00;;;;8413108;28;20239;-66
2022/07/28 06:37:28;;;;;;;11.85;6.28;;;;;20.20;96397.00;;;;8412033;28;20330;-68
2022/07/28 06:41:31;;;;;;;13.63;6.00;;;;;20.60;96396.00;;;;8412986;28;20318;-68
2022/07/28 06:45:36;;;;;;;10.15;6.43;;;;;21.10;96395.00;;;;8417516;28;20235;-65
2022/07/28 06:49:39;;;;;;;13.00;5.93;;;;;21.70;96398.00;;;;8415778;28;20243;-67
2022/07/28 06:53:42;;;;;;;16.20;6.10;;;;;22.10;96414.00;;;;8421823;28;20261;-67
2022/07/28 06:57:48;;;;;;;13.15;5.90;;;;;22.60;96405.00;;;;8410518;28;20691;-68
2022/07/28 07:01:52;;;;;;;16.95;6.47;;;;;22.90;96400.00;;;;8412826;28;20399;-68
2022/07/28 07:05:56;;;;;;;19.90;7.50;;;;;23.10;96406.00;;;;8418065;28;20417;-67
2022/07/28 07:09:59;;;;;;;12.63;6.57;;;;;23.30;96400.00;;;;8416779;28;20233;-68
2022/07/28 07:14:03;;;;;;;16.55;7.13;;;;;23.50;96405.00;;;;8416865;28;20227;-67
2022/07/28 07:18:08;;;;;;;13.25;6.60;;;;;23.90;96398.00;;;;8415746;28;20622;-68
2022/07/28 07:22:13;;;;;;;17.40;7.18;;;;;24.50;96396.00;;;;8415281;28;20251;-68
2022/07/28 07:26:16;;;;;;;17.73;7.15;;;;;24.90;96392.00;;;;8402415;28;20228;-67
2022/07/28 07:30:20;;;;;;;15.35;7.40;;;;;24.90;96388.00;;;;8409607;28;20255;-67
2022/07/28 07:34:25;;;;;;;15.55;6.68;;;;;25.00;96378.00;;;;8416691;28;20318;-69
2022/07/28 07:38:28;;;;;;;18.40;6.90;;;;;25.30;96380.00;;;;8411785;28;20751;-67
2022/07/28 07:42:31;;;;;;;11.90;6.20;;;;;25.60;96373.00;;;;8412506;28;20235;-69
2022/07/28 07:46:35;;;;;;;12.70;6.75;;;;;26.00;96374.00;;;;8416056;28;20226;-68
2022/07/28 07:50:40;;;;;;;11.68;6.20;;;;;26.40;96382.00;;;;8405035;28;20226;-67
2022/07/28 07:54:44;;;;;;;14.85;6.63;;;;;26.90;96379.00;;;;8409474;28;20222;-70
2022/07/28 07:58:48;;;;;;;7.85;4.97;;;;;27.30;96389.00;;;;8414827;28;20238;-67
2022/07/28 08:02:59;;;;;;;11.75;5.32;;;;;27.90;96382.00;;;;8412798;28;20269;-71
2022/07/28 08:07:07;;;;;;;8.20;5.53;;;;;27.90;96379.00;;;;8409723;28;20750;-69
2022/07/28 08:11:11;;;;;;;7.03;4.97;;;;;28.40;96384.00;;;;8412814;28;20224;-69
2022/07/28 08:15:14;;;;;;;11.75;5.68;;;;;29.30;96385.00;;;;8407281;28;20310;-69
2022/07/28 08:19:17;;;;;;;12.10;5.35;;;;;29.60;96382.00;;;;8417372;28;20221;-68
2022/07/28 08:23:25;;;;;;;5.65;4.47;;;;;29.90;96372.00;;;;8411759;28;20234;-69
2022/07/28 08:27:28;;;;;;;12.07;5.22;;;;;30.40;96377.00;;;;8411518;28;20227;-68
2022/07/28 08:31:31;;;;;;;6.75;4.90;;;;;30.00;96374.00;;;;8416549;28;20235;-70
2022/07/28 08:35:37;;;;;;;8.35;5.00;;;;;30.00;96386.00;;;;8410040;28;20238;-67
2022/07/28 08:39:43;;;;;;;9.73;4.90;;;;;30.10;96379.00;;;;8408251;28;20297;-66
2022/07/28 08:43:49;;;;;;;11.27;4.90;;;;;30.00;96378.00;;;;8410376;28;20239;-66
2022/07/28 08:47:56;;;;;;;9.95;4.65;;;;;29.60;96391.00;;;;8412010;28;20223;-69
2022/07/28 08:52:12;;;;;;;26.08;15.95;;;;;30.00;96383.00;;;;8411459;28;20235;-67
2022/07/28 08:56:18;;;;;;;17.42;11.32;;;;;30.60;96373.00;;;;8411861;28;20251;-67
2022/07/28 09:00:22;;;;;;;8.25;4.68;;;;;30.90;96382.00;;;;8412428;28;20226;-68
2022/07/28 09:04:26;;;;;;;13.27;4.45;;;;;30.90;96388.00;;;;8408148;28;20811;-69
2022/07/28 09:08:29;;;;;;;7.88;4.47;;;;;31.00;96381.00;;;;8409717;28;20647;-66
2022/07/28 09:12:35;;;;;;;10.32;4.60;;;;;31.20;96385.00;;;;8409727;28;20223;-67
2022/07/28 09:16:40;;;;;;;5.32;4.13;;;;;31.70;96388.00;;;;8407551;28;20222;-67
2022/07/28 09:20:44;;;;;;;8.30;4.60;;;;;31.90;96381.00;;;;8406371;28;20242;-66
2022/07/28 09:24:48;;;;;;;8.07;4.72;;;;;32.40;96379.00;;;;8410902;28;20326;-67
2022/07/28 09:28:53;;;;;;;8.45;4.38;;;;;32.80;96381.00;;;;8408545;28;20253;-67
2022/07/28 09:33:16;;;;;;;6.22;4.50;;;;;33.40;96371.00;;;;8412120;28;20561;-65
2022/07/28 09:37:39;;;;;;;7.10;4.30;;;;;33.90;96374.00;;;;8410085;28;20263;-67
2022/07/28 09:41:54;;;;;;;8.38;3.92;;;;;33.30;96369.00;;;;8410834;28;20680;-70
2022/07/28 09:46:05;;;;;;;8.35;4.43;;;;;33.60;96374.00;;;;8412317;28;20226;-69
2022/07/28 09:50:19;;;;;;;7.45;4.47;;;;;33.20;96368.00;;;;8408391;28;20251;-69
2022/07/28 09:54:23;;;;;;;5.75;4.20;;;;;33.80;96372.00;;;;8405609;28;20317;-68
2022/07/28 09:58:26;;;;;;;6.15;4.20;;;;;33.50;96362.00;;;;8405308;28;20230;-66
2022/07/28 10:02:31;;;;;;;6.78;4.30;;;;;32.50;96358.00;;;;8408480;28;20231;-68
2022/07/28 10:06:39;;;;;;;13.20;4.38;;;;;32.30;96361.00;;;;8402855;28;20265;-69
2022/07/28 10:10:42;;;;;;;12.30;4.93;;;;;32.90;96354.00;;;;8408509;28;20223;-70
2022/07/28 10:14:46;;;;;;;7.88;4.43;;;;;33.80;96353.00;;;;8405301;28;20227;-71
2022/07/28 10:18:51;;;;;;;7.28;3.97;;;;;33.90;96340.00;;;;8414451;28;20218;-69
2022/07/28 10:23:01;;;;;;;8.82;4.40;;;;;34.20;96340.00;;;;8416480;28;20571;-68
2022/07/28 10:27:06;;;;;;;8.68;4.35;;;;;34.30;96345.00;;;;8414457;28;20239;-67
2022/07/28 10:31:11;;;;;;;7.55;4.10;;;;;34.10;96342.00;;;;8414373;28;20227;-69
2022/07/28 10:35:19;;;;;;;7.97;3.92;;;;;33.60;96334.00;;;;8416136;28;20692;-72
2022/07/28 10:39:25;;;;;;;14.52;4.07;;;;;33.60;96339.00;;;;8417515;28;20583;-70
2022/07/28 10:43:29;;;;;;;8.32;3.80;;;;;32.80;96334.00;;;;8409174;28;20227;-70
2022/07/28 10:47:32;;;;;;;4.88;3.50;;;;;33.30;96341.00;;;;8415836;28;20622;-73
2022/07/28 10:51:42;;;;;;;6.25;3.67;;;;;33.70;96334.00;;;;8418660;28;20251;-69
2022/07/28 10:56:11;;;;;;;5.55;3.63;;;;;33.80;96332.00;;;;8412043;28;20211;-68
2022/07/28 11:00:17;;;;;;;9.80;3.50;;;;;33.90;96325.00;;;;8414202;28;20243;-68
2022/07/28 11:04:54;;;;;;;3.92;3.55;;;;;33.80;96325.00;;;;8416206;28;20250;-69
2022/07/28 11:09:20;;;;;;;9.90;3.42;;;;;33.00;96327.00;;;;8414772;28;20444;-68
2022/07/28 11:13:26;;;;;;;3.50;3.25;;;;;33.00;96313.00;;;;8413210;28;20230;-69
2022/07/28 11:17:31;;;;;;;6.63;3.83;;;;;33.60;96310.00;;;;8412262;28;20234;-66
2022/07/28 11:21:37;;;;;;;9.55;3.60;;;;;34.60;96313.00;;;;8410788;28;20227;-69
2022/07/28 11:26:26;;;;;;;7.68;3.88;;;;;34.90;96307.00;;;;8415588;28;20306;-69
2022/07/28 11:30:54;;;;;;;5.15;3.17;;;;;35.30;96306.00;;;;8410891;28;20779;-66
2022/07/28 11:35:09;;;;;;;8.05;3.85;;;;;34.30;96312.00;;;;8412408;28;20254;-67
2022/07/28 11:39:22;;;;;;;4.70;3.25;;;;;33.80;96301.00;;;;8413306;28;20719;-71
2022/07/28 11:43:38;;;;;;;4.97;3.10;;;;;34.00;96313.00;;;;8411607;28;20689;-66
2022/07/28 11:47:42;;;;;;;3.53;3.17;;;;;33.00;96310.00;;;;8411988;28;20251;-68
2022/07/28 11:52:14;;;;;;;3.40;3.10;;;;;34.20;96299.00;;;;8415289;28;20665;-67
2022/07/28 11:56:24;;;;;;;4.75;3.22;;;;;35.50;96302.00;;;;8380091;28;20226;-68
2022/07/28 12:00:29;;;;;;;4.30;2.92;;;;;34.30;96295.00;;;;8430481;28;20262;-72
2022/07/28 12:04:34;;;;;;;5.53;3.38;;;;;34.40;96295.00;;;;8413053;28;20281;-68
2022/07/28 12:08:52;;;;;;;3.97;3.20;;;;;35.40;96284.00;;;;8426406;28;20698;-68
2022/07/28 12:12:58;;;;;;;4.07;2.95;;;;;35.30;96284.00;;;;8418558;28;20225;-65
2022/07/28 12:17:03;;;;;;;4.40;3.00;;;;;35.30;96294.00;;;;8417112;28;20218;-69
2022/07/28 12:21:07;;;;;;;4.72;2.95;;;;;34.60;96290.00;;;;8425532;28;20786;-65
2022/07/28 12:25:11;;;;;;;3.33;3.03;;;;;34.40;96287.00;;;;8411745;28;20237;-68
2022/07/28 12:29:16;;;;;;;4.70;2.70;;;;;34.50;96282.00;;;;8409122;28;20306;-69
2022/07/28 12:33:22;;;;;;;2.90;2.70;;;;;33.80;96279.00;;;;8390844;28;20553;-67
2022/07/28 12:37:31;;;;;;;3.50;3.10;;;;;33.00;96279.00;;;;8408492;28;21195;-65
2022/07/28 12:41:37;;;;;;;3.40;2.97;;;;;32.80;96281.00;;;;8414333;28;20250;-65
2022/07/28 12:45:46;;;;;;;3.17;2.88;;;;;32.40;96278.00;;;;8414052;28;20314;-67
2022/07/28 12:50:08;;;;;;;3.35;3.05;;;;;32.20;96270.00;;;;8413158;28;20223;-66
2022/07/28 12:54:13;;;;;;;8.73;3.10;;;;;32.30;96258.00;;;;8407264;28;20222;-68
2022/07/28 12:58:27;;;;;;;3.25;2.95;;;;;32.00;96251.00;;;;8408923;28;20276;-67
2022/07/28 13:02:36;;;;;;;3.20;2.78;;;;;31.60;96252.00;;;;8406006;28;20223;-68
2022/07/28 13:06:41;;;;;;;4.20;2.60;;;;;31.70;96261.00;;;;8410956;28;20291;-65
2022/07/28 13:10:48;;;;;;;6.68;2.80;;;;;32.20;96248.00;;;;8400697;28;20225;-67
2022/07/28 13:15:02;;;;;;;3.28;2.90;;;;;32.60;96248.00;;;;8410634;28;20219;-69
2022/07/28 13:19:06;;;;;;;3.28;2.90;;;;;33.40;96248.00;;;;8413896;28;20234;-70
2022/07/28 13:23:12;;;;;;;4.60;2.90;;;;;33.90;96243.00;;;;8409352;28;20680;-68
2022/07/28 13:27:15;;;;;;;3.28;2.70;;;;;33.70;96237.00;;;;8411405;28;20314;-71
2022/07/28 13:31:18;;;;;;;6.97;2.80;;;;;33.20;96234.00;;;;8413197;28;20222;-72
2022/07/28 13:35:21;;;;;;;4.53;2.75;;;;;33.00;96238.00;;;;8413104;28;20312;-70
2022/07/28 13:39:26;;;;;;;5.28;2.80;;;;;33.50;96223.00;;;;8411565;28;20211;-69
2022/07/28 13:43:29;;;;;;;2.75;2.30;;;;;33.80;96236.00;;;;8412900;28;20233;-66
2022/07/28 13:47:38;;;;;;;3.28;2.28;;;;;34.20;96230.00;;;;8411047;28;20223;-69
2022/07/28 13:51:41;;;;;;;6.57;2.63;;;;;34.10;96229.00;;;;8411458;28;20226;-68
2022/07/28 13:55:46;;;;;;;4.70;2.40;;;;;34.30;96220.00;;;;8409791;28;20215;-68
2022/07/28 13:59:49;;;;;;;5.35;2.47;;;;;34.10;96230.00;;;;8415152;28;20223;-67
2022/07/28 14:03:52;;;;;;;2.80;2.47;;;;;33.50;96212.00;;;;8413228;28;20318;-70
2022/07/28 14:08:00;;;;;;;4.90;2.65;;;;;33.30;96209.00;;;;8412798;28;20238;-69
2022/07/28 14:12:05;;;;;;;5.55;2.53;;;;;33.90;96204.00;;;;8407516;28;20223;-70
2022/07/28 14:16:08;;;;;;;3.40;2.40;;;;;33.90;96214.00;;;;8414355;28;20321;-69
2022/07/28 14:20:16;;;;;;;10.77;2.70;;;;;34.00;96214.00;;;;8413733;28;20304;-67
2022/07/28 14:24:20;;;;;;;4.00;2.47;;;;;34.90;96215.00;;;;8414460;28;20222;-70
2022/07/28 14:28:25;;;;;;;9.02;2.20;;;;;35.10;96204.00;;;;8412569;28;20692;-69
2022/07/28 14:32:28;;;;;;;3.25;2.50;;;;;34.50;96211.00;;;;8394237;28;20225;-70
2022/07/28 14:36:32;;;;;;;3.25;2.15;;;;;33.60;96205.00;;;;8403376;28;20223;-70
2022/07/28 14:40:35;;;;;;;5.95;2.60;;;;;33.20;96197.00;;;;8411662;28;20231;-74
2022/07/28 14:44:43;;;;;;;4.32;2.50;;;;;33.60;96196.00;;;;8405168;28;20251;-73
2022/07/28 14:48:46;;;;;;;4.32;2.78;;;;;34.10;96200.00;;;;8394560;28;20698;-70
2022/07/28 14:52:49;;;;;;;5.93;2.75;;;;;34.30;96193.00;;;;8406108;28;20284;-70
2022/07/28 14:56:53;;;;;;;2.53;2.28;;;;;33.70;96200.00;;;;8414096;28;20247;-71
2022/07/28 15:00:57;;;;;;;6.18;2.75;;;;;33.00;96198.00;;;;8412858;28;20238;-70
2022/07/28 15:05:00;;;;;;;2.85;2.60;;;;;33.00;96190.00;;;;8419553;28;20588;-70
2022/07/28 15:09:05;;;;;;;4.45;3.22;;;;;33.00;96184.00;;;;8418830;28;20219;-73
2022/07/28 15:13:08;;;;;;;3.40;2.53;;;;;32.70;96184.00;;;;8420249;28;20229;-71
2022/07/28 15:17:13;;;;;;;4.70;2.83;;;;;32.20;96185.00;;;;8418512;28;20682;-73
2022/07/28 15:21:16;;;;;;;4.15;2.80;;;;;31.60;96180.00;;;;8419931;28;20223;-69
2022/07/28 15:25:19;;;;;;;3.10;2.50;;;;;31.20;96181.00;;;;8418964;28;20230;-71
2022/07/28 15:29:23;;;;;;;6.80;2.78;;;;;31.00;96173.00;;;;8420232;28;20241;-71
2022/07/28 15:33:28;;;;;;;8.23;2.95;;;;;31.20;96179.00;;;;8418186;28;20299;-69
2022/07/28 15:37:34;;;;;;;5.30;2.90;;;;;31.20;96177.00;;;;8418724;28;20300;-70
2022/07/28 15:41:37;;;;;;;4.13;2.50;;;;;31.50;96174.00;;;;8418596;28;20310;-71
2022/07/28 15:45:41;;;;;;;3.42;2.90;;;;;31.70;96171.00;;;;8419244;28;20316;-71
2022/07/28 15:49:45;;;;;;;5.43;2.58;;;;;32.30;96173.00;;;;8419091;28;20212;-68
2022/07/28 15:53:54;;;;;;;3.53;2.33;;;;;32.70;96174.00;;;;8416640;28;20618;-69
2022/07/28 15:57:58;;;;;;;5.60;2.75;;;;;32.80;96165.00;;;;8421555;28;20703;-70
2022/07/28 16:02:01;;;;;;;28.95;3.35;;;;;33.30;96166.00;;;;8423923;28;20230;-70
2022/07/28 16:06:06;;;;;;;4.95;2.53;;;;;33.30;96154.00;;;;8426872;28;20269;-70
2022/07/28 16:10:09;;;;;;;3.17;2.30;;;;;33.30;96164.00;;;;8418370;28;20698;-70
2022/07/28 16:14:13;;;;;;;2.90;2.53;;;;;33.20;96157.00;;;;8427193;28;20250;-73
2022/07/28 16:18:16;;;;;;;6.28;2.47;;;;;33.00;96152.00;;;;8412345;28;20219;-69
2022/07/28 16:22:21;;;;;;;5.95;2.40;;;;;32.60;96145.00;;;;8415199;28;20223;-69
2022/07/28 16:26:24;;;;;;;5.68;2.40;;;;;32.10;96151.00;;;;8415756;28;20234;-70
2022/07/28 16:30:29;;;;;;;4.30;2.25;;;;;31.60;96148.00;;;;8398791;28;20219;-68
2022/07/28 16:34:33;;;;;;;2.20;2.00;;;;;31.10;96150.00;;;;8414066;28;20227;-69
2022/07/28 16:38:38;;;;;;;2.60;2.03;;;;;30.90;96146.00;;;;8409352;28;20219;-68
2022/07/28 16:42:41;;;;;;;5.35;2.33;;;;;30.90;96149.00;;;;8406920;28;20749;-68
2022/07/28 16:46:45;;;;;;;3.80;2.20;;;;;30.80;96141.00;;;;8412037;28;20215;-69
2022/07/28 16:50:48;;;;;;;2.58;2.38;;;;;30.60;96146.00;;;;8416220;28;20233;-68
2022/07/28 16:54:53;;;;;;;5.53;2.42;;;;;30.60;96155.00;;;;8415933;28;20231;-72
2022/07/28 16:58:59;;;;;;;2.47;2.25;;;;;30.80;96149.00;;;;8411977;28;20219;-68
2022/07/28 17:03:02;;;;;;;3.85;2.30;;;;;30.90;96147.00;;;;8401934;28;20272;-70
2022/07/28 17:07:07;;;;;;;3.28;2.10;;;;;31.10;96151.00;;;;8405702;28;20412;-71
2022/07/28 17:11:12;;;;;;;2.50;2.30;;;;;31.40;96149.00;;;;8413366;28;20223;-71
2022/07/28 17:15:15;;;;;;;3.72;2.20;;;;;31.50;96157.00;;;;8416101;28;20234;-68
2022/07/28 17:19:24;;;;;;;4.70;2.40;;;;;31.70;96163.00;;;;8414176;28;20293;-72
2022/07/28 17:23:34;;;;;;;4.20;2.10;;;;;31.40;96168.00;;;;8416255;28;20219;-68
2022/07/28 17:27:39;;;;;;;4.22;2.30;;;;;31.10;96171.00;;;;8412536;28;20234;-70
2022/07/28 17:31:50;;;;;;;4.28;2.35;;;;;31.00;96165.00;;;;8413542;28;20231;-75
2022/07/28 17:35:55;;;;;;;2.40;2.10;;;;;30.90;96167.00;;;;8410807;28;20227;-72
2022/07/28 17:39:59;;;;;;;7.47;2.67;;;;;30.90;96169.00;;;;8412840;28;21014;-70
2022/07/28 17:44:08;;;;;;;2.72;2.20;;;;;30.70;96173.00;;;;8405028;28;20211;-69
2022/07/28 17:48:11;;;;;;;4.60;2.50;;;;;30.60;96169.00;;;;8397140;28;20902;-69
2022/07/28 17:52:14;;;;;;;2.53;2.30;;;;;30.30;96165.00;;;;8412164;28;20219;-70
2022/07/28 17:56:18;;;;;;;4.20;2.38;;;;;30.10;96170.00;;;;8408545;28;20223;-68
2022/07/28 18:00:24;;;;;;;5.47;2.28;;;;;29.70;96179.00;;;;8400120;28;20230;-73
2022/07/28 18:04:27;;;;;;;4.45;2.30;;;;;29.00;96177.00;;;;8363179;28;20243;-71
2022/07/28 18:08:30;;;;;;;3.47;2.88;;;;;28.40;96177.00;;;;8353939;28;20953;-68
2022/07/28 18:12:34;;;;;;;2.33;2.22;;;;;27.90;96183.00;;;;8353159;28;20246;-69
2022/07/28 18:16:38;;;;;;;2.65;2.45;;;;;27.60;96169.00;;;;8347860;28;20308;-67
2022/07/28 18:20:42;;;;;;;3.17;2.80;;;;;27.30;96176.00;;;;8347222;28;20236;-68
2022/07/28 18:24:46;;;;;;;2.72;2.45;;;;;27.00;96185.00;;;;8342239;28;20238;-69
2022/07/28 18:28:49;;;;;;;3.50;2.45;;;;;26.80;96179.00;;;;8336125;28;20224;-68
2022/07/28 18:32:54;;;;;;;2.97;2.17;;;;;26.60;96180.00;;;;8339380;28;20239;-70
2022/07/28 18:36:58;;;;;;;5.18;2.47;;;;;26.40;96177.00;;;;8352519;28;20224;-68
2022/07/28 18:41:03;;;;;;;3.47;2.63;;;;;26.20;96187.00;;;;8358652;28;20232;-70
2022/07/28 18:45:07;;;;;;;3.50;2.50;;;;;26.00;96185.00;;;;8349584;28;20263;-72
2022/07/28 18:49:12;;;;;;;3.25;2.65;;;;;25.90;96183.00;;;;8350703;28;20234;-70
2022/07/28 18:53:15;;;;;;;3.95;2.80;;;;;25.70;96194.00;;;;8352053;28;20220;-70
2022/07/28 18:57:18;;;;;;;5.40;2.53;;;;;25.50;96194.00;;;;8341885;28;20228;-70
2022/07/28 19:01:22;;;;;;;2.53;2.33;;;;;25.40;96188.00;;;;8300786;28;1207786;-68
2022/07/28 19:05:45;;;;;;;2.75;2.50;;;;;25.20;96198.00;;;;8349731;28;20888;-69
2022/07/28 19:09:52;;;;;;;3.10;2.80;;;;;25.10;96199.00;;;;8348230;28;20213;-69
2022/07/28 19:13:55;;;;;;;4.50;2.22;;;;;25.00;96204.00;;;;8348862;28;20323;-72
2022/07/28 19:17:58;;;;;;;6.05;2.50;;;;;24.90;96214.00;;;;8360368;28;20230;-66
2022/07/28 19:22:15;;;;;;;5.75;2.70;;;;;24.80;96219.00;;;;8376290;28;20225;-68
2022/07/28 19:26:18;;;;;;;7.68;2.92;;;;;24.70;96219.00;;;;8339967;28;20706;-66
2022/07/28 19:30:21;;;;;;;2.75;2.55;;;;;24.60;96220.00;;;;8371173;28;20227;-69
2022/07/28 19:34:32;;;;;;;4.32;2.58;;;;;24.50;96216.00;;;;8368819;28;20280;-67
2022/07/28 19:38:40;;;;;;;3.83;2.58;;;;;24.40;96215.00;;;;8359721;28;20266;-68
2022/07/28 19:42:43;;;;;;;5.05;2.70;;;;;24.30;96220.00;;;;8353776;28;20231;-70
2022/07/28 19:46:47;;;;;;;3.20;2.47;;;;;24.20;96227.00;;;;8354743;28;20231;-67
2022/07/28 19:50:51;;;;;;;2.47;2.28;;;;;24.10;96229.00;;;;8356981;28;20223;-69
2022/07/28 19:54:56;;;;;;;6.72;2.72;;;;;24.00;96218.00;;;;8339862;28;20227;-67
2022/07/28 19:58:59;;;;;;;2.88;2.65;;;;;24.00;96219.00;;;;8363211;28;20231;-67
2022/07/28 20:03:03;;;;;;;4.95;2.58;;;;;23.90;96221.00;;;;8363684;28;20252;-68
2022/07/28 20:07:26;;;;;;;7.38;2.70;;;;;23.90;96217.00;;;;8379985;28;20589;-70
2022/07/28 20:11:31;;;;;;;3.63;2.50;;;;;23.70;96213.00;;;;8378135;28;20223;-71
2022/07/28 20:15:35;;;;;;;4.00;2.90;;;;;23.60;96227.00;;;;8375785;28;20250;-70
2022/07/28 20:19:38;;;;;;;4.03;2.53;;;;;23.60;96242.00;;;;8381526;28;20215;-69
2022/07/28 20:23:41;;;;;;;2.70;2.50;;;;;23.60;96234.00;;;;8373845;28;20223;-69
2022/07/28 20:27:46;;;;;;;5.97;2.60;;;;;23.50;96237.00;;;;8391344;28;20243;-69
2022/07/28 20:31:49;;;;;;;6.90;2.90;;;;;23.40;96236.00;;;;8379146;28;20219;-70
2022/07/28 20:35:52;;;;;;;6.43;2.72;;;;;23.30;96248.00;;;;8380973;28;20791;-67
2022/07/28 20:39:56;;;;;;;3.25;2.70;;;;;23.20;96248.00;;;;8386009;28;20238;-65
2022/07/28 20:44:01;;;;;;;3.20;2.63;;;;;23.20;96255.00;;;;8383905;28;20262;-66